sensor_id;sensor_type;location;lat;lon;timestamp;pressure;altitude;pressure_sealevel;temperature;humidity
70304;BME280;57712;48.752;11.348;2023-03-20T00:00:58;97720.06;;;7.55;100.00
70304;BME280;57712;48.752;11.348;2023-03-20T00:03:25;97724.34;;;7.56;100.00
70304;BME280;57712;48.752;11.348;2023-03-20T00:05:52;97725.13;;;7.57;100.00
70304;BME280;57712;48.752;11.348;2023-03-20T00:08:19;97733.31;;;7.46;100.00
70304;BME280;57712;48.752;11.348;2023-03-20T00:10:46;97744.22;;;7.49;100.00
70304;BME280;57712;48.752;11.348;2023-03-20T00:13:17;97741.47;;;7.49;100.00
70304;BME280;57712;48.752;11.348;2023-03-20T00:15:48;97734.09;;;7.39;100.00
70304;BME280;57712;48.752;11.348;2023-03-20T00:18:16;97736.06;;;7.42;100.00
70304;BME280;57712;48.752;11.348;2023-03-20T00:20:46;97733.72;;;7.44;100.00
70304;BME280;57712;48.752;11.348;2023-03-20T00:23:13;97730.63;;;7.42;100.00
70304;BME280;57712;48.752;11.348;2023-03-20T00:25:40;97741.50;;;7.42;100.00
70304;BME280;57712;48.752;11.348;2023-03-20T00:28:40;97739.94;;;7.38;100.00
70304;BME280;57712;48.752;11.348;2023-03-20T00:31:17;97743.47;;;7.31;100.00
70304;BME280;57712;48.752;11.348;2023-03-20T00:33:45;97752.44;;;7.24;100.00
70304;BME280;57712;48.752;11.348;2023-03-20T00:36:12;97752.03;;;7.37;100.00
70304;BME280;57712;48.752;11.348;2023-03-20T00:38:38;97749.31;;;7.26;100.00
70304;BME280;57712;48.752;11.348;2023-03-20T00:44:14;97745.44;;;7.20;100.00
70304;BME280;57712;48.752;11.348;2023-03-20T00:46:45;97746.19;;;7.17;100.00
70304;BME280;57712;48.752;11.348;2023-03-20T00:49:13;97750.47;;;7.14;100.00
70304;BME280;57712;48.752;11.348;2023-03-20T00:51:40;97745.44;;;7.13;100.00
70304;BME280;57712;48.752;11.348;2023-03-20T00:54:15;97743.47;;;7.17;100.00
70304;BME280;57712;48.752;11.348;2023-03-20T00:56:50;97741.91;;;7.16;100.00
70304;BME280;57712;48.752;11.348;2023-03-20T00:59:21;97741.94;;;7.19;100.00
70304;BME280;57712;48.752;11.348;2023-03-20T01:01:49;97739.97;;;7.27;100.00
70304;BME280;57712;48.752;11.348;2023-03-20T01:04:17;97731.41;;;7.32;100.00
70304;BME280;57712;48.752;11.348;2023-03-20T01:06:46;97725.97;;;7.25;100.00
70304;BME280;57712;48.752;11.348;2023-03-20T01:09:13;97727.50;;;7.33;100.00
70304;BME280;57712;48.752;11.348;2023-03-20T01:11:40;97727.13;;;7.42;100.00
70304;BME280;57712;48.752;11.348;2023-03-20T01:14:12;97733.72;;;7.41;100.00
70304;BME280;57712;48.752;11.348;2023-03-20T01:16:40;97737.22;;;7.48;100.00
70304;BME280;57712;48.752;11.348;2023-03-20T01:19:12;97736.44;;;7.44;100.00
70304;BME280;57712;48.752;11.348;2023-03-20T01:21:40;97743.06;;;7.50;100.00
70304;BME280;57712;48.752;11.348;2023-03-20T01:24:07;97740.31;;;7.58;100.00
70304;BME280;57712;48.752;11.348;2023-03-20T01:26:37;97736.78;;;7.64;100.00
70304;BME280;57712;48.752;11.348;2023-03-20T01:29:18;97734.06;;;7.64;100.00
70304;BME280;57712;48.752;11.348;2023-03-20T01:31:46;97735.97;;;7.71;100.00
70304;BME280;57712;48.752;11.348;2023-03-20T01:34:13;97737.56;;;7.65;100.00
70304;BME280;57712;48.752;11.348;2023-03-20T01:36:49;97733.66;;;7.73;100.00
70304;BME280;57712;48.752;11.348;2023-03-20T01:39:16;97736.78;;;7.68;100.00
70304;BME280;57712;48.752;11.348;2023-03-20T01:41:45;97737.16;;;7.70;100.00
70304;BME280;57712;48.752;11.348;2023-03-20T01:44:23;97736.75;;;7.78;100.00
70304;BME280;57712;48.752;11.348;2023-03-20T01:46:52;97725.88;;;7.68;100.00
70304;BME280;57712;48.752;11.348;2023-03-20T01:51:47;97734.41;;;7.77;100.00
70304;BME280;57712;48.752;11.348;2023-03-20T01:54:17;97730.91;;;7.80;100.00
70304;BME280;57712;48.752;11.348;2023-03-20T01:56:49;97729.34;;;7.86;100.00
70304;BME280;57712;48.752;11.348;2023-03-20T01:59:24;97731.69;;;7.80;100.00
70304;BME280;57712;48.752;11.348;2023-03-20T02:01:53;97728.94;;;7.84;100.00
70304;BME280;57712;48.752;11.348;2023-03-20T02:04:24;97730.88;;;7.87;100.00
70304;BME280;57712;48.752;11.348;2023-03-20T02:06:52;97724.28;;;7.85;100.00
70304;BME280;57712;48.752;11.348;2023-03-20T02:09:19;97723.09;;;7.86;100.00
70304;BME280;57712;48.752;11.348;2023-03-20T02:11:46;97728.16;;;7.87;100.00
70304;BME280;57712;48.752;11.348;2023-03-20T02:14:14;97730.47;;;7.89;100.00
70304;BME280;57712;48.752;11.348;2023-03-20T02:16:41;97732.06;;;7.86;100.00
70304;BME280;57712;48.752;11.348;2023-03-20T02:19:23;97734.78;;;7.86;100.00
70304;BME280;57712;48.752;11.348;2023-03-20T02:41:59;97743.72;;;7.90;100.00
70304;BME280;57712;48.752;11.348;2023-03-20T02:44:45;97749.97;;;7.80;100.00
70304;BME280;57712;48.752;11.348;2023-03-20T02:47:21;97743.78;;;7.72;100.00
70304;BME280;57712;48.752;11.348;2023-03-20T02:50:15;97747.28;;;7.73;100.00
70304;BME280;57712;48.752;11.348;2023-03-20T02:55:39;97748.47;;;7.72;100.00
70304;BME280;57712;48.752;11.348;2023-03-20T02:58:14;97758.22;;;7.73;100.00
70304;BME280;57712;48.752;11.348;2023-03-20T03:00:55;97752.72;;;7.76;100.00
70304;BME280;57712;48.752;11.348;2023-03-20T03:03:31;97760.13;;;7.76;100.00
70304;BME280;57712;48.752;11.348;2023-03-20T03:06:08;97757.81;;;7.74;100.00
70304;BME280;57712;48.752;11.348;2023-03-20T03:08:40;97757.81;;;7.74;100.00
70304;BME280;57712;48.752;11.348;2023-03-20T03:11:09;97763.25;;;7.81;100.00
70304;BME280;57712;48.752;11.348;2023-03-20T03:13:45;97770.63;;;7.81;100.00
70304;BME280;57712;48.752;11.348;2023-03-20T03:16:21;97770.25;;;7.82;100.00
70304;BME280;57712;48.752;11.348;2023-03-20T03:18:58;97778.84;;;7.74;100.00
70304;BME280;57712;48.752;11.348;2023-03-20T03:21:28;97767.53;;;7.79;100.00
70304;BME280;57712;48.752;11.348;2023-03-20T03:23:55;97776.47;;;7.79;100.00
70304;BME280;57712;48.752;11.348;2023-03-20T03:26:28;97774.16;;;7.85;100.00
70304;BME280;57712;48.752;11.348;2023-03-20T03:29:03;97772.59;;;7.77;100.00
70304;BME280;57712;48.752;11.348;2023-03-20T03:31:33;97766.34;;;7.80;100.00
70304;BME280;57712;48.752;11.348;2023-03-20T03:34:01;97776.47;;;7.87;100.00
70304;BME280;57712;48.752;11.348;2023-03-20T03:36:38;97770.25;;;7.86;100.00
70304;BME280;57712;48.752;11.348;2023-03-20T03:39:15;97771.81;;;7.80;100.00
70304;BME280;57712;48.752;11.348;2023-03-20T03:42:18;97778.41;;;7.90;100.00
70304;BME280;57712;48.752;11.348;2023-03-20T03:47:36;97788.56;;;7.82;100.00
70304;BME280;57712;48.752;11.348;2023-03-20T03:50:27;97785.06;;;7.85;100.00
70304;BME280;57712;48.752;11.348;2023-03-20T03:52:58;97799.84;;;7.88;100.00
70304;BME280;57712;48.752;11.348;2023-03-20T03:55:29;97791.25;;;7.89;100.00
70304;BME280;57712;48.752;11.348;2023-03-20T03:58:02;97796.72;;;7.89;100.00
70304;BME280;57712;48.752;11.348;2023-03-20T04:00:33;97801.41;;;7.92;100.00
70304;BME280;57712;48.752;11.348;2023-03-20T04:03:01;97785.78;;;7.96;100.00
70304;BME280;57712;48.752;11.348;2023-03-20T04:05:30;97800.59;;;7.95;100.00
70304;BME280;57712;48.752;11.348;2023-03-20T04:08:03;97802.16;;;7.96;100.00
70304;BME280;57712;48.752;11.348;2023-03-20T04:10:31;97799.03;;;8.01;100.00
70304;BME280;57712;48.752;11.348;2023-03-20T04:12:57;97802.53;;;8.05;100.00
70304;BME280;57712;48.752;11.348;2023-03-20T04:15:24;97805.25;;;8.05;100.00
70304;BME280;57712;48.752;11.348;2023-03-20T04:17:53;97798.22;;;8.08;100.00
70304;BME280;57712;48.752;11.348;2023-03-20T04:20:19;97808.34;;;8.11;100.00
70304;BME280;57712;48.752;11.348;2023-03-20T04:22:47;97808.34;;;8.15;100.00
70304;BME280;57712;48.752;11.348;2023-03-20T04:25:19;97808.34;;;8.15;100.00
70304;BME280;57712;48.752;11.348;2023-03-20T04:27:46;97807.59;;;8.03;100.00
70304;BME280;57712;48.752;11.348;2023-03-20T04:30:13;97813.03;;;8.10;100.00
70304;BME280;57712;48.752;11.348;2023-03-20T04:32:40;97811.09;;;8.07;100.00
70304;BME280;57712;48.752;11.348;2023-03-20T04:35:07;97811.88;;;8.04;100.00
70304;BME280;57712;48.752;11.348;2023-03-20T04:37:34;97812.28;;;8.03;100.00
70304;BME280;57712;48.752;11.348;2023-03-20T04:40:01;97813.06;;;8.03;100.00
70304;BME280;57712;48.752;11.348;2023-03-20T04:42:28;97817.75;;;7.99;100.00
70304;BME280;57712;48.752;11.348;2023-03-20T04:44:54;97806.81;;;7.99;100.00
70304;BME280;57712;48.752;11.348;2023-03-20T04:47:21;97807.59;;;8.03;100.00
70304;BME280;57712;48.752;11.348;2023-03-20T04:49:47;97802.16;;;7.96;100.00
70304;BME280;57712;48.752;11.348;2023-03-20T04:52:14;97805.28;;;7.95;100.00
70304;BME280;57712;48.752;11.348;2023-03-20T04:54:41;97807.63;;;7.96;100.00
70304;BME280;57712;48.752;11.348;2023-03-20T04:57:08;97800.59;;;7.95;100.00
70304;BME280;57712;48.752;11.348;2023-03-20T04:59:35;97806.06;;;7.95;100.00
70304;BME280;57712;48.752;11.348;2023-03-20T05:02:02;97813.84;;;7.97;100.00
70304;BME280;57712;48.752;11.348;2023-03-20T05:04:28;97820.09;;;7.97;100.00
70304;BME280;57712;48.752;11.348;2023-03-20T05:06:56;97814.63;;;7.97;100.00
70304;BME280;57712;48.752;11.348;2023-03-20T05:09:24;97820.84;;;8.01;100.00
70304;BME280;57712;48.752;11.348;2023-03-20T05:11:51;97822.00;;;8.00;100.00
70304;BME280;57712;48.752;11.348;2023-03-20T05:14:17;97817.75;;;7.99;100.00
70304;BME280;57712;48.752;11.348;2023-03-20T05:16:44;97823.59;;;7.94;100.00
70304;BME280;57712;48.752;11.348;2023-03-20T05:19:11;97826.72;;;7.96;100.00
70304;BME280;57712;48.752;11.348;2023-03-20T05:21:37;97831.78;;;7.98;100.00
70304;BME280;57712;48.752;11.348;2023-03-20T05:24:04;97832.56;;;7.98;100.00
70304;BME280;57712;48.752;11.348;2023-03-20T05:26:31;97828.66;;;7.99;100.00
70304;BME280;57712;48.752;11.348;2023-03-20T05:28:58;97830.22;;;7.93;100.00
70304;BME280;57712;48.752;11.348;2023-03-20T05:31:24;97831.00;;;7.97;100.00
70304;BME280;57712;48.752;11.348;2023-03-20T05:33:51;97841.53;;;7.95;100.00
70304;BME280;57712;48.752;11.348;2023-03-20T05:36:17;97844.63;;;7.90;100.00
70304;BME280;57712;48.752;11.348;2023-03-20T05:38:44;97852.84;;;7.94;100.00
70304;BME280;57712;48.752;11.348;2023-03-20T05:41:10;97850.50;;;7.92;100.00
70304;BME280;57712;48.752;11.348;2023-03-20T05:43:37;97849.69;;;7.99;100.00
70304;BME280;57712;48.752;11.348;2023-03-20T05:46:04;97852.81;;;7.97;100.00
70304;BME280;57712;48.752;11.348;2023-03-20T05:48:30;97848.91;;;8.02;100.00
70304;BME280;57712;48.752;11.348;2023-03-20T05:50:57;97848.91;;;7.98;100.00
70304;BME280;57712;48.752;11.348;2023-03-20T05:53:24;97853.22;;;7.96;100.00
70304;BME280;57712;48.752;11.348;2023-03-20T05:55:50;97857.50;;;7.93;100.00
70304;BME280;57712;48.752;11.348;2023-03-20T05:58:17;97863.72;;;7.97;100.00
70304;BME280;57712;48.752;11.348;2023-03-20T06:00:44;97867.22;;;7.91;100.00
70304;BME280;57712;48.752;11.348;2023-03-20T06:03:10;97867.63;;;7.96;100.00
70304;BME280;57712;48.752;11.348;2023-03-20T06:05:37;97864.50;;;7.98;100.00
70304;BME280;57712;48.752;11.348;2023-03-20T06:08:04;97868.00;;;7.98;100.00
70304;BME280;57712;48.752;11.348;2023-03-20T06:10:31;97862.19;;;7.96;100.00
70304;BME280;57712;48.752;11.348;2023-03-20T06:12:58;97870.75;;;7.95;100.00
70304;BME280;57712;48.752;11.348;2023-03-20T06:15:27;97869.56;;;7.89;100.00
70304;BME280;57712;48.752;11.348;2023-03-20T06:17:54;97873.88;;;7.93;100.00
70304;BME280;57712;48.752;11.348;2023-03-20T06:20:22;97856.72;;;7.96;100.00
70304;BME280;57712;48.752;11.348;2023-03-20T06:22:49;97871.16;;;7.93;100.00
70304;BME280;57712;48.752;11.348;2023-03-20T06:25:17;97870.75;;;7.98;100.00
70304;BME280;57712;48.752;11.348;2023-03-20T06:27:45;97878.53;;;8.03;100.00
70304;BME280;57712;48.752;11.348;2023-03-20T06:30:13;97869.16;;;8.08;100.00
70304;BME280;57712;48.752;11.348;2023-03-20T06:32:41;97878.53;;;8.03;100.00
70304;BME280;57712;48.752;11.348;2023-03-20T06:35:08;97877.75;;;8.06;100.00
70304;BME280;57712;48.752;11.348;2023-03-20T06:37:35;97874.59;;;8.19;100.00
70304;BME280;57712;48.752;11.348;2023-03-20T06:40:03;97880.06;;;8.26;100.00
70304;BME280;57712;48.752;11.348;2023-03-20T06:42:29;97885.47;;;8.33;100.00
70304;BME280;57712;48.752;11.348;2023-03-20T06:44:56;97877.72;;;8.35;100.00
70304;BME280;57712;48.752;11.348;2023-03-20T06:47:23;97894.09;;;8.35;100.00
70304;BME280;57712;48.752;11.348;2023-03-20T06:49:49;97880.00;;;8.33;100.00
70304;BME280;57712;48.752;11.348;2023-03-20T06:52:19;97890.56;;;8.27;100.00
70304;BME280;57712;48.752;11.348;2023-03-20T06:54:47;97890.16;;;8.39;100.00
70304;BME280;57712;48.752;11.348;2023-03-20T06:57:13;97892.50;;;8.34;100.00
70304;BME280;57712;48.752;11.348;2023-03-20T06:59:40;97898.38;;;8.36;100.00
70304;BME280;57712;48.752;11.348;2023-03-20T07:02:09;97896.78;;;8.42;100.00
70304;BME280;57712;48.752;11.348;2023-03-20T07:04:36;97892.84;;;8.57;100.00
70304;BME280;57712;48.752;11.348;2023-03-20T07:07:02;97904.16;;;8.59;100.00
70304;BME280;57712;48.752;11.348;2023-03-20T07:09:29;97906.13;;;8.48;100.00
70304;BME280;57712;48.752;11.348;2023-03-20T07:11:55;97899.09;;;8.54;100.00
70304;BME280;57712;48.752;11.348;2023-03-20T07:14:22;97906.47;;;8.64;100.00
70304;BME280;57712;48.752;11.348;2023-03-20T07:16:48;97904.78;;;8.92;100.00
70304;BME280;57712;48.752;11.348;2023-03-20T07:19:16;97901.25;;;8.95;100.00
70304;BME280;57712;48.752;11.348;2023-03-20T07:21:43;97904.22;;;9.29;100.00
70304;BME280;57712;48.752;11.348;2023-03-20T07:24:09;97899.88;;;9.35;100.00
70304;BME280;57712;48.752;11.348;2023-03-20T07:26:36;97893.63;;;9.38;100.00
70304;BME280;57712;48.752;11.348;2023-03-20T07:29:03;97894.38;;;9.42;100.00
70304;BME280;57712;48.752;11.348;2023-03-20T07:31:30;97897.38;;;9.55;100.00
70304;BME280;57712;48.752;11.348;2023-03-20T07:33:57;97908.66;;;9.64;100.00
70304;BME280;57712;48.752;11.348;2023-03-20T07:36:24;97902.03;;;9.62;100.00
70304;BME280;57712;48.752;11.348;2023-03-20T07:38:51;97904.44;;;9.52;100.00
70304;BME280;57712;48.752;11.348;2023-03-20T07:41:17;97905.00;;;9.81;100.00
70304;BME280;57712;48.752;11.348;2023-03-20T07:43:44;97909.03;;;9.66;100.00
70304;BME280;57712;48.752;11.348;2023-03-20T07:46:11;97905.97;;;10.47;100.00
70304;BME280;57712;48.752;11.348;2023-03-20T07:48:37;97909.16;;;10.41;100.00
70304;BME280;57712;48.752;11.348;2023-03-20T07:51:04;97896.31;;;9.94;100.00
70304;BME280;57712;48.752;11.348;2023-03-20T07:53:31;97895.09;;;10.39;100.00
70304;BME280;57712;48.752;11.348;2023-03-20T07:55:57;97893.59;;;10.31;100.00
70304;BME280;57712;48.752;11.348;2023-03-20T07:58:24;97886.09;;;10.73;100.00
70304;BME280;57712;48.752;11.348;2023-03-20T08:00:51;97888.03;;;11.07;100.00
70304;BME280;57712;48.752;11.348;2023-03-20T08:03:17;97881.19;;;11.45;100.00
70304;BME280;57712;48.752;11.348;2023-03-20T08:05:44;97875.69;;;10.91;100.00
70304;BME280;57712;48.752;11.348;2023-03-20T08:08:13;97873.28;;;11.24;100.00
70304;BME280;57712;48.752;11.348;2023-03-20T08:10:40;97880.34;;;11.75;100.00
70304;BME280;57712;48.752;11.348;2023-03-20T08:13:06;97873.88;;;11.39;100.00
70304;BME280;57712;48.752;11.348;2023-03-20T08:15:33;97880.53;;;11.11;100.00
70304;BME280;57712;48.752;11.348;2023-03-20T08:18:00;97880.31;;;10.98;100.00
70304;BME280;57712;48.752;11.348;2023-03-20T08:20:27;97880.69;;;11.00;100.00
70304;BME280;57712;48.752;11.348;2023-03-20T08:22:54;97890.03;;;10.72;100.00
70304;BME280;57712;48.752;11.348;2023-03-20T08:25:21;97886.69;;;10.57;100.00
70304;BME280;57712;48.752;11.348;2023-03-20T08:27:48;97890.38;;;10.78;100.00
70304;BME280;57712;48.752;11.348;2023-03-20T08:30:14;97877.34;;;10.85;100.00
70304;BME280;57712;48.752;11.348;2023-03-20T08:32:41;97890.50;;;10.67;100.00
70304;BME280;57712;48.752;11.348;2023-03-20T08:35:08;97885.09;;;10.90;100.00
70304;BME280;57712;48.752;11.348;2023-03-20T08:37:55;97883.28;;;10.80;100.00
70304;BME280;57712;48.752;11.348;2023-03-20T08:40:21;97886.28;;;11.20;100.00
70304;BME280;57712;48.752;11.348;2023-03-20T08:42:48;97883.28;;;11.11;100.00
70304;BME280;57712;48.752;11.348;2023-03-20T08:45:14;97884.72;;;11.19;100.00
70304;BME280;57712;48.752;11.348;2023-03-20T08:47:46;97885.72;;;11.32;100.00
70304;BME280;57712;48.752;11.348;2023-03-20T08:50:14;97888.53;;;11.79;100.00
70304;BME280;57712;48.752;11.348;2023-03-20T08:52:41;97889.56;;;12.12;100.00
70304;BME280;57712;48.752;11.348;2023-03-20T08:55:13;97890.22;;;12.20;100.00
70304;BME280;57712;48.752;11.348;2023-03-20T08:57:41;97891.69;;;12.24;100.00
70304;BME280;57712;48.752;11.348;2023-03-20T09:00:09;97885.16;;;12.38;100.00
70304;BME280;57712;48.752;11.348;2023-03-20T09:02:37;97895.31;;;11.71;100.00
70304;BME280;57712;48.752;11.348;2023-03-20T09:05:04;97895.91;;;11.59;100.00
70304;BME280;57712;48.752;11.348;2023-03-20T09:07:31;97893.78;;;11.43;100.00
70304;BME280;57712;48.752;11.348;2023-03-20T09:09:57;97894.09;;;11.48;100.00
70304;BME280;57712;48.752;11.348;2023-03-20T09:12:24;97890.44;;;11.59;100.00
70304;BME280;57712;48.752;11.348;2023-03-20T09:14:50;97884.44;;;11.40;100.00
70304;BME280;57712;48.752;11.348;2023-03-20T09:17:17;97892.69;;;11.10;100.00
70304;BME280;57712;48.752;11.348;2023-03-20T09:19:43;97889.88;;;11.13;100.00
70304;BME280;57712;48.752;11.348;2023-03-20T09:22:14;97896.38;;;11.26;100.00
70304;BME280;57712;48.752;11.348;2023-03-20T09:24:44;97893.09;;;11.35;100.00
70304;BME280;57712;48.752;11.348;2023-03-20T09:27:11;97895.06;;;11.62;100.00
70304;BME280;57712;48.752;11.348;2023-03-20T09:29:42;97897.03;;;11.61;100.00
70304;BME280;57712;48.752;11.348;2023-03-20T09:32:11;97896.94;;;11.41;100.00
70304;BME280;57712;48.752;11.348;2023-03-20T09:34:38;97891.78;;;11.47;100.00
70304;BME280;57712;48.752;11.348;2023-03-20T09:37:04;97897.22;;;11.74;100.00
70304;BME280;57712;48.752;11.348;2023-03-20T09:39:32;97888.94;;;11.77;100.00
70304;BME280;57712;48.752;11.348;2023-03-20T09:42:46;97892.16;;;11.99;100.00
70304;BME280;57712;48.752;11.348;2023-03-20T09:47:52;97886.41;;;12.13;100.00
70304;BME280;57712;48.752;11.348;2023-03-20T09:50:41;97889.38;;;12.23;100.00
70304;BME280;57712;48.752;11.348;2023-03-20T09:53:13;97890.47;;;12.05;100.00
70304;BME280;57712;48.752;11.348;2023-03-20T09:55:43;97900.31;;;11.79;100.00
70304;BME280;57712;48.752;11.348;2023-03-20T09:58:19;97885.69;;;12.09;100.00
70304;BME280;57712;48.752;11.348;2023-03-20T10:00:46;97882.91;;;12.33;100.00
70304;BME280;57712;48.752;11.348;2023-03-20T10:03:18;97882.81;;;12.17;100.00
70304;BME280;57712;48.752;11.348;2023-03-20T10:06:01;97882.06;;;12.36;100.00
70304;BME280;57712;48.752;11.348;2023-03-20T10:08:33;97878.91;;;12.37;100.00
70304;BME280;57712;48.752;11.348;2023-03-20T10:11:09;97877.13;;;12.47;100.00
70304;BME280;57712;48.752;11.348;2023-03-20T10:14:17;97883.53;;;13.00;100.00
70304;BME280;57712;48.752;11.348;2023-03-20T10:19:51;97881.41;;;13.44;100.00
70304;BME280;57712;48.752;11.348;2023-03-20T10:22:47;97878.50;;;13.35;100.00
70304;BME280;57712;48.752;11.348;2023-03-20T10:25:21;97877.56;;;13.74;100.00
70304;BME280;57712;48.752;11.348;2023-03-20T10:28:00;97881.50;;;13.04;100.00
70304;BME280;57712;48.752;11.348;2023-03-20T10:33:11;97874.94;;;12.38;100.00
70304;BME280;57712;48.752;11.348;2023-03-20T10:38:48;97871.94;;;13.28;100.00
70304;BME280;57712;48.752;11.348;2023-03-20T10:41:20;97871.25;;;14.06;100.00
70304;BME280;57712;48.752;11.348;2023-03-20T10:43:51;97860.09;;;14.26;100.00
70304;BME280;57712;48.752;11.348;2023-03-20T10:46:57;97851.44;;;14.11;100.00
70304;BME280;57712;48.752;11.348;2023-03-20T10:49:20;97865.06;;;13.85;100.00
70304;BME280;57712;48.752;11.348;2023-03-20T10:51:56;97856.25;;;13.45;100.00
70304;BME280;57712;48.752;11.348;2023-03-20T10:54:35;97847.53;;;13.47;100.00
70304;BME280;57712;48.752;11.348;2023-03-20T10:57:10;97855.00;;;13.30;100.00
70304;BME280;57712;48.752;11.348;2023-03-20T10:59:49;97851.81;;;13.32;100.00
70304;BME280;57712;48.752;11.348;2023-03-20T11:02:19;97849.25;;;13.73;100.00
70304;BME280;57712;48.752;11.348;2023-03-20T11:04:46;97842.91;;;14.22;100.00
70304;BME280;57712;48.752;11.348;2023-03-20T11:07:25;97846.03;;;15.20;100.00
70304;BME280;57712;48.752;11.348;2023-03-20T11:12:34;97846.00;;;13.46;100.00
70304;BME280;57712;48.752;11.348;2023-03-20T11:15:33;97843.44;;;13.55;100.00
70304;BME280;57712;48.752;11.348;2023-03-20T11:18:04;97844.25;;;13.19;100.00
70304;BME280;57712;48.752;11.348;2023-03-20T11:20:34;97837.44;;;12.88;100.00
70304;BME280;57712;48.752;11.348;2023-03-20T11:23:06;97837.50;;;13.04;100.00
70304;BME280;57712;48.752;11.348;2023-03-20T11:25:37;97844.00;;;12.94;100.00
70304;BME280;57712;48.752;11.348;2023-03-20T11:28:36;97839.44;;;14.63;100.00
70304;BME280;57712;48.752;11.348;2023-03-20T11:31:04;97837.41;;;15.05;100.00
70304;BME280;57712;48.752;11.348;2023-03-20T11:33:36;97830.50;;;13.68;100.00
70304;BME280;57712;48.752;11.348;2023-03-20T11:36:10;97832.28;;;13.75;100.00
70304;BME280;57712;48.752;11.348;2023-03-20T11:38:43;97832.91;;;13.34;100.00
70304;BME280;57712;48.752;11.348;2023-03-20T11:41:17;97833.94;;;13.23;100.00
70304;BME280;57712;48.752;11.348;2023-03-20T11:43:44;97825.47;;;13.14;100.00
70304;BME280;57712;48.752;11.348;2023-03-20T11:46:11;97832.38;;;13.22;100.00
70304;BME280;57712;48.752;11.348;2023-03-20T11:48:43;97823.28;;;13.58;100.00
70304;BME280;57712;48.752;11.348;2023-03-20T11:51:16;97822.41;;;13.77;100.00
70304;BME280;57712;48.752;11.348;2023-03-20T11:56:23;97822.94;;;13.72;100.00
70304;BME280;57712;48.752;11.348;2023-03-20T11:59:03;97826.09;;;13.87;100.00
70304;BME280;57712;48.752;11.348;2023-03-20T12:01:47;97819.63;;;13.94;100.00
70304;BME280;57712;48.752;11.348;2023-03-20T12:06:53;97820.13;;;14.05;100.00
70304;BME280;57712;48.752;11.348;2023-03-20T12:09:36;97818.53;;;13.42;100.00
70304;BME280;57712;48.752;11.348;2023-03-20T12:12:26;97823.22;;;13.45;100.00
70304;BME280;57712;48.752;11.348;2023-03-20T12:15:16;97815.50;;;13.04;100.00
70304;BME280;57712;48.752;11.348;2023-03-20T12:25:54;97815.31;;;13.11;100.00
70304;BME280;57712;48.752;11.348;2023-03-20T12:28:30;97808.59;;;12.96;100.00
70304;BME280;57712;48.752;11.348;2023-03-20T12:36:33;97809.94;;;12.71;100.00
70304;BME280;57712;48.752;11.348;2023-03-20T12:39:04;97809.47;;;12.93;100.00
70304;BME280;57712;48.752;11.348;2023-03-20T12:44:28;97800.00;;;12.94;100.00
70304;BME280;57712;48.752;11.348;2023-03-20T12:49:50;97806.56;;;12.80;100.00
70304;BME280;57712;48.752;11.348;2023-03-20T12:58:13;97801.59;;;12.91;100.00
70304;BME280;57712;48.752;11.348;2023-03-20T13:00:59;97805.50;;;12.94;100.00
70304;BME280;57712;48.752;11.348;2023-03-20T13:04:10;97795.50;;;12.84;100.00
70304;BME280;57712;48.752;11.348;2023-03-20T13:06:52;97792.53;;;13.11;100.00
70304;BME280;57712;48.752;11.348;2023-03-20T13:17:33;97797.06;;;12.85;100.00
70304;BME280;57712;48.752;11.348;2023-03-20T13:33:48;97788.22;;;12.93;100.00
70304;BME280;57712;48.752;11.348;2023-03-20T13:39:58;97777.50;;;13.15;100.00
70304;BME280;57712;48.752;11.348;2023-03-20T13:42:31;97772.72;;;13.19;100.00
70304;BME280;57712;48.752;11.348;2023-03-20T13:45:26;97774.28;;;13.37;100.00
70304;BME280;57712;48.752;11.348;2023-03-20T13:48:00;97768.31;;;13.06;100.00
70304;BME280;57712;48.752;11.348;2023-03-20T13:53:05;97770.63;;;13.07;100.00
70304;BME280;57712;48.752;11.348;2023-03-20T13:55:55;97776.28;;;13.00;100.00
70304;BME280;57712;48.752;11.348;2023-03-20T14:01:11;97758.47;;;12.88;100.00
70304;BME280;57712;48.752;11.348;2023-03-20T14:03:45;97772.75;;;12.99;100.00
70304;BME280;57712;48.752;11.348;2023-03-20T14:08:58;97770.97;;;13.09;100.00
70304;BME280;57712;48.752;11.348;2023-03-20T14:11:27;97767.13;;;13.23;100.00
70304;BME280;57712;48.752;11.348;2023-03-20T14:14:22;97774.25;;;13.04;100.00
70304;BME280;57712;48.752;11.348;2023-03-20T14:17:16;97757.84;;;12.81;100.00
70304;BME280;57712;48.752;11.348;2023-03-20T14:19:45;97767.25;;;12.83;100.00
70304;BME280;57712;48.752;11.348;2023-03-20T14:22:28;97767.78;;;12.58;100.00
70304;BME280;57712;48.752;11.348;2023-03-20T14:25:07;97768.84;;;12.81;100.00
70304;BME280;57712;48.752;11.348;2023-03-20T14:27:51;97768.22;;;12.93;100.00
70304;BME280;57712;48.752;11.348;2023-03-20T14:35:51;97763.56;;;13.06;100.00
70304;BME280;57712;48.752;11.348;2023-03-20T14:38:48;97764.19;;;13.14;100.00
70304;BME280;57712;48.752;11.348;2023-03-20T14:41:36;97759.72;;;13.04;100.00
70304;BME280;57712;48.752;11.348;2023-03-20T14:49:32;97765.38;;;12.96;100.00
70304;BME280;57712;48.752;11.348;2023-03-20T14:52:36;97758.06;;;13.06;100.00
70304;BME280;57712;48.752;11.348;2023-03-20T14:55:27;97766.28;;;12.74;100.00
70304;BME280;57712;48.752;11.348;2023-03-20T14:58:00;97752.53;;;12.74;100.00
70304;BME280;57712;48.752;11.348;2023-03-20T15:00:32;97762.91;;;12.66;100.00
70304;BME280;57712;48.752;11.348;2023-03-20T15:03:15;97747.47;;;12.88;100.00
70304;BME280;57712;48.752;11.348;2023-03-20T15:05:43;97744.72;;;12.72;100.00
70304;BME280;57712;48.752;11.348;2023-03-20T15:08:23;97740.88;;;12.86;100.00